sensor_id;sensor_type;location;lat;lon;timestamp;pressure;altitude;pressure_sealevel;temperature;humidity
2178;BME280;1095;50.992;6.798;2023-05-21T00:01:33;100942.63;;;13.43;96.00
2178;BME280;1095;50.992;6.798;2023-05-21T00:04:00;100933.41;;;13.47;95.83
2178;BME280;1095;50.992;6.798;2023-05-21T00:06:27;100936.72;;;13.41;95.97
2178;BME280;1095;50.992;6.798;2023-05-21T00:08:54;100935.41;;;13.37;95.79
2178;BME280;1095;50.992;6.798;2023-05-21T00:11:20;100931.28;;;13.35;96.26
2178;BME280;1095;50.992;6.798;2023-05-21T00:13:49;100935.72;;;13.34;96.34
2178;BME280;1095;50.992;6.798;2023-05-21T00:16:16;100928.84;;;13.33;96.27
2178;BME280;1095;50.992;6.798;2023-05-21T00:18:42;100929.16;;;13.30;96.46
2178;BME280;1095;50.992;6.798;2023-05-21T00:21:09;100924.72;;;13.31;96.55
2178;BME280;1095;50.992;6.798;2023-05-21T00:23:36;100928.84;;;13.33;96.58
2178;BME280;1095;50.992;6.798;2023-05-21T00:26:04;100917.00;;;13.29;96.44
2178;BME280;1095;50.992;6.798;2023-05-21T00:28:30;100921.94;;;13.32;96.56
2178;BME280;1095;50.992;6.798;2023-05-21T00:30:58;100917.19;;;13.27;96.60
2178;BME280;1095;50.992;6.798;2023-05-21T00:33:25;100922.28;;;13.29;96.76
2178;BME280;1095;50.992;6.798;2023-05-21T00:35:53;100917.50;;;13.24;96.97
2178;BME280;1095;50.992;6.798;2023-05-21T00:38:21;100908.50;;;13.19;97.06
2178;BME280;1095;50.992;6.798;2023-05-21T00:40:47;100915.25;;;13.21;97.08
2178;BME280;1095;50.992;6.798;2023-05-21T00:43:14;100911.44;;;13.24;97.24
2178;BME280;1095;50.992;6.798;2023-05-21T00:45:41;100908.34;;;13.20;97.16
2178;BME280;1095;50.992;6.798;2023-05-21T00:48:12;100912.25;;;13.24;97.30
2178;BME280;1095;50.992;6.798;2023-05-21T00:50:40;100908.34;;;13.20;97.38
2178;BME280;1095;50.992;6.798;2023-05-21T00:53:07;100908.50;;;13.19;97.52
2178;BME280;1095;50.992;6.798;2023-05-21T00:55:35;100905.88;;;13.19;97.61
2178;BME280;1095;50.992;6.798;2023-05-21T00:58:02;100898.00;;;13.19;97.74
2178;BME280;1095;50.992;6.798;2023-05-21T01:00:30;100901.09;;;13.14;97.89
2178;BME280;1095;50.992;6.798;2023-05-21T01:02:58;100915.38;;;13.12;97.98
2178;BME280;1095;50.992;6.798;2023-05-21T01:05:27;100909.31;;;13.11;98.19
2178;BME280;1095;50.992;6.798;2023-05-21T01:07:55;100905.19;;;13.09;98.52
2178;BME280;1095;50.992;6.798;2023-05-21T01:10:22;100910.13;;;13.12;98.40
2178;BME280;1095;50.992;6.798;2023-05-21T01:12:50;100913.41;;;13.14;98.15
2178;BME280;1095;50.992;6.798;2023-05-21T01:15:17;100906.03;;;13.09;98.17
2178;BME280;1095;50.992;6.798;2023-05-21T01:17:46;100899.94;;;13.09;98.21
2178;BME280;1095;50.992;6.798;2023-05-21T01:20:14;100901.59;;;13.02;98.32
2178;BME280;1095;50.992;6.798;2023-05-21T01:22:50;100894.53;;;13.02;98.18
2178;BME280;1095;50.992;6.798;2023-05-21T01:25:16;100893.72;;;13.02;98.36
2178;BME280;1095;50.992;6.798;2023-05-21T01:27:43;100900.94;;;13.00;98.49
2178;BME280;1095;50.992;6.798;2023-05-21T01:30:11;100907.16;;;12.99;98.67
2178;BME280;1095;50.992;6.798;2023-05-21T01:32:44;100898.31;;;13.00;98.48
2178;BME280;1095;50.992;6.798;2023-05-21T01:35:17;100895.03;;;12.98;98.51
2178;BME280;1095;50.992;6.798;2023-05-21T01:37:47;100894.03;;;12.99;98.48
2178;BME280;1095;50.992;6.798;2023-05-21T01:40:20;100888.78;;;12.99;98.40
2178;BME280;1095;50.992;6.798;2023-05-21T01:42:48;100895.69;;;13.08;98.30
2178;BME280;1095;50.992;6.798;2023-05-21T01:45:15;100891.41;;;13.07;98.28
2178;BME280;1095;50.992;6.798;2023-05-21T01:47:44;100892.72;;;13.11;98.02
2178;BME280;1095;50.992;6.798;2023-05-21T01:50:12;100883.69;;;13.05;97.86
2178;BME280;1095;50.992;6.798;2023-05-21T01:52:49;100889.94;;;13.04;97.75
2178;BME280;1095;50.992;6.798;2023-05-21T01:55:16;100893.69;;;13.10;97.77
2178;BME280;1095;50.992;6.798;2023-05-21T01:57:43;100884.84;;;13.03;97.69
2178;BME280;1095;50.992;6.798;2023-05-21T02:00:11;100880.56;;;13.02;97.90
2178;BME280;1095;50.992;6.798;2023-05-21T02:02:39;100881.56;;;13.01;97.70
2178;BME280;1095;50.992;6.798;2023-05-21T02:05:06;100891.91;;;12.94;98.01
2178;BME280;1095;50.992;6.798;2023-05-21T02:07:33;100882.06;;;12.88;98.33
2178;BME280;1095;50.992;6.798;2023-05-21T02:10:03;100879.59;;;12.86;98.21
2178;BME280;1095;50.992;6.798;2023-05-21T02:12:30;100882.53;;;12.83;98.46
2178;BME280;1095;50.992;6.798;2023-05-21T02:14:56;100881.91;;;12.73;98.63
2178;BME280;1095;50.992;6.798;2023-05-21T02:17:23;100879.13;;;12.75;98.75
2178;BME280;1095;50.992;6.798;2023-05-21T02:19:50;100883.56;;;12.74;98.97
2178;BME280;1095;50.992;6.798;2023-05-21T02:22:17;100882.56;;;12.75;98.82
2178;BME280;1095;50.992;6.798;2023-05-21T02:24:43;100877.47;;;12.74;99.02
2178;BME280;1095;50.992;6.798;2023-05-21T02:27:11;100873.88;;;12.75;99.01
2178;BME280;1095;50.992;6.798;2023-05-21T02:29:38;100885.81;;;12.77;99.28
2178;BME280;1095;50.992;6.798;2023-05-21T02:32:06;100873.34;;;12.79;99.07
2178;BME280;1095;50.992;6.798;2023-05-21T02:34:33;100876.78;;;12.80;98.84
2178;BME280;1095;50.992;6.798;2023-05-21T02:37:01;100873.69;;;12.76;98.78
2178;BME280;1095;50.992;6.798;2023-05-21T02:39:28;100876.97;;;12.78;99.00
2178;BME280;1095;50.992;6.798;2023-05-21T02:41:54;100862.72;;;12.73;99.07
2178;BME280;1095;50.992;6.798;2023-05-21T02:44:22;100870.06;;;12.77;99.08
2178;BME280;1095;50.992;6.798;2023-05-21T02:46:50;100865.81;;;12.68;99.42
2178;BME280;1095;50.992;6.798;2023-05-21T02:49:16;100854.16;;;12.62;99.70
2178;BME280;1095;50.992;6.798;2023-05-21T02:51:43;100862.38;;;12.59;99.85
2178;BME280;1095;50.992;6.798;2023-05-21T02:54:09;100864.19;;;12.67;99.92
2178;BME280;1095;50.992;6.798;2023-05-21T02:56:36;100861.53;;;12.59;100.00
2178;BME280;1095;50.992;6.798;2023-05-21T02:59:02;100858.59;;;12.62;100.00
2178;BME280;1095;50.992;6.798;2023-05-21T03:01:30;100866.13;;;12.57;100.00
2178;BME280;1095;50.992;6.798;2023-05-21T03:03:57;100870.41;;;12.58;100.00
2178;BME280;1095;50.992;6.798;2023-05-21T03:06:24;100867.13;;;12.56;100.00
2178;BME280;1095;50.992;6.798;2023-05-21T03:08:50;100867.13;;;12.56;100.00
2178;BME280;1095;50.992;6.798;2023-05-21T03:11:20;100868.44;;;12.60;100.00
2178;BME280;1095;50.992;6.798;2023-05-21T03:13:47;100860.22;;;12.55;100.00
2178;BME280;1095;50.992;6.798;2023-05-21T03:16:16;100873.03;;;12.58;100.00
2178;BME280;1095;50.992;6.798;2023-05-21T03:18:44;100860.56;;;12.52;100.00
2178;BME280;1095;50.992;6.798;2023-05-21T03:21:11;100860.56;;;12.52;100.00
2178;BME280;1095;50.992;6.798;2023-05-21T03:23:39;100856.63;;;12.48;100.00
2178;BME280;1095;50.992;6.798;2023-05-21T03:26:07;100863.84;;;12.54;100.00
2178;BME280;1095;50.992;6.798;2023-05-21T03:28:33;100852.69;;;12.52;100.00
2178;BME280;1095;50.992;6.798;2023-05-21T03:31:00;100853.81;;;12.49;100.00
2178;BME280;1095;50.992;6.798;2023-05-21T03:33:27;100850.69;;;12.46;100.00
2178;BME280;1095;50.992;6.798;2023-05-21T03:35:55;100863.19;;;12.52;100.00
2178;BME280;1095;50.992;6.798;2023-05-21T03:38:22;100852.03;;;12.50;100.00
2178;BME280;1095;50.992;6.798;2023-05-21T03:40:48;100870.72;;;12.55;100.00
2178;BME280;1095;50.992;6.798;2023-05-21T03:43:15;100858.09;;;12.58;100.00
2178;BME280;1095;50.992;6.798;2023-05-21T03:45:41;100857.28;;;12.58;100.00
2178;BME280;1095;50.992;6.798;2023-05-21T03:48:08;100854.00;;;12.56;100.00
2178;BME280;1095;50.992;6.798;2023-05-21T03:50:35;100857.28;;;12.58;100.00
2178;BME280;1095;50.992;6.798;2023-05-21T03:53:03;100853.84;;;12.57;100.00
2178;BME280;1095;50.992;6.798;2023-05-21T03:55:29;100861.22;;;12.54;100.00
2178;BME280;1095;50.992;6.798;2023-05-21T03:57:56;100865.47;;;12.55;100.00
2178;BME280;1095;50.992;6.798;2023-05-21T04:00:23;100860.06;;;12.56;100.00
2178;BME280;1095;50.992;6.798;2023-05-21T04:02:52;100870.72;;;12.55;100.00
2178;BME280;1095;50.992;6.798;2023-05-21T04:05:18;100864.34;;;12.57;100.00
2178;BME280;1095;50.992;6.798;2023-05-21T04:07:45;100873.69;;;12.60;100.00
2178;BME280;1095;50.992;6.798;2023-05-21T04:10:14;100868.75;;;12.57;100.00
2178;BME280;1095;50.992;6.798;2023-05-21T04:12:41;100865.50;;;12.63;100.00
2178;BME280;1095;50.992;6.798;2023-05-21T04:15:08;100866.16;;;12.65;100.00
2178;BME280;1095;50.992;6.798;2023-05-21T04:17:35;100869.44;;;12.67;100.00
2178;BME280;1095;50.992;6.798;2023-05-21T04:20:01;100863.53;;;12.65;100.00
2178;BME280;1095;50.992;6.798;2023-05-21T04:22:29;100861.56;;;12.67;100.00
2178;BME280;1095;50.992;6.798;2023-05-21T04:24:55;100863.69;;;12.72;100.00
2178;BME280;1095;50.992;6.798;2023-05-21T04:27:25;100862.53;;;12.74;100.00
2178;BME280;1095;50.992;6.798;2023-05-21T04:29:52;100870.22;;;12.84;100.00
2178;BME280;1095;50.992;6.798;2023-05-21T04:32:19;100866.28;;;12.80;100.00
2178;BME280;1095;50.992;6.798;2023-05-21T04:34:46;100860.22;;;12.79;100.00
2178;BME280;1095;50.992;6.798;2023-05-21T04:37:12;100870.41;;;12.90;99.99
2178;BME280;1095;50.992;6.798;2023-05-21T04:39:42;100869.25;;;12.93;99.92
2178;BME280;1095;50.992;6.798;2023-05-21T04:42:08;100871.38;;;12.98;99.72
2178;BME280;1095;50.992;6.798;2023-05-21T04:44:37;100868.25;;;12.94;99.71
2178;BME280;1095;50.992;6.798;2023-05-21T04:47:04;100869.75;;;12.96;99.38
2178;BME280;1095;50.992;6.798;2023-05-21T04:49:32;100862.84;;;13.04;99.29
2178;BME280;1095;50.992;6.798;2023-05-21T04:51:59;100865.78;;;13.01;99.13
2178;BME280;1095;50.992;6.798;2023-05-21T04:54:27;100857.25;;;13.07;99.04
2178;BME280;1095;50.992;6.798;2023-05-21T04:56:54;100855.59;;;13.14;98.97
2178;BME280;1095;50.992;6.798;2023-05-21T04:59:22;100851.50;;;13.11;98.67
2178;BME280;1095;50.992;6.798;2023-05-21T05:01:50;100851.19;;;13.22;98.42
2178;BME280;1095;50.992;6.798;2023-05-21T05:04:17;100862.47;;;13.31;98.55
2178;BME280;1095;50.992;6.798;2023-05-21T05:06:43;100860.34;;;13.35;98.04
2178;BME280;1095;50.992;6.798;2023-05-21T05:09:10;100860.31;;;13.43;97.77
2178;BME280;1095;50.992;6.798;2023-05-21T05:11:36;100857.19;;;13.47;97.75
2178;BME280;1095;50.992;6.798;2023-05-21T05:14:03;100855.53;;;13.54;97.38
2178;BME280;1095;50.992;6.798;2023-05-21T05:16:30;100856.50;;;13.53;97.19
2178;BME280;1095;50.992;6.798;2023-05-21T05:18:58;100859.66;;;13.49;97.01
2178;BME280;1095;50.992;6.798;2023-05-21T05:21:24;100861.13;;;13.51;96.63
2178;BME280;1095;50.992;6.798;2023-05-21T05:23:51;100855.50;;;13.63;96.68
2178;BME280;1095;50.992;6.798;2023-05-21T05:26:18;100843.84;;;13.57;96.32
2178;BME280;1095;50.992;6.798;2023-05-21T05:28:45;100848.94;;;13.58;96.32
2178;BME280;1095;50.992;6.798;2023-05-21T05:31:12;100858.59;;;13.66;96.38
2178;BME280;1095;50.992;6.798;2023-05-21T05:33:38;100854.81;;;13.69;96.14
2178;BME280;1095;50.992;6.798;2023-05-21T05:36:07;100854.59;;;13.78;96.12
2178;BME280;1095;50.992;6.798;2023-05-21T05:38:34;100849.50;;;13.77;95.76
2178;BME280;1095;50.992;6.798;2023-05-21T05:41:01;100845.53;;;13.81;95.59
2178;BME280;1095;50.992;6.798;2023-05-21T05:43:27;100848.16;;;13.81;95.44
2178;BME280;1095;50.992;6.798;2023-05-21T05:45:54;100854.72;;;13.85;95.48
2178;BME280;1095;50.992;6.798;2023-05-21T05:48:20;100841.59;;;13.77;95.85
2178;BME280;1095;50.992;6.798;2023-05-21T05:50:47;100843.25;;;13.78;96.12
2178;BME280;1095;50.992;6.798;2023-05-21T05:53:15;100846.81;;;13.93;96.18
2178;BME280;1095;50.992;6.798;2023-05-21T05:55:42;100851.97;;;14.09;95.72
2178;BME280;1095;50.992;6.798;2023-05-21T05:58:08;100848.09;;;14.20;95.34
2178;BME280;1095;50.992;6.798;2023-05-21T06:00:35;100844.53;;;14.44;94.56
2178;BME280;1095;50.992;6.798;2023-05-21T06:03:02;100848.00;;;14.82;93.88
2178;BME280;1095;50.992;6.798;2023-05-21T06:05:29;100831.81;;;15.08;92.17
2178;BME280;1095;50.992;6.798;2023-05-21T06:07:55;100837.25;;;15.21;91.00
2178;BME280;1095;50.992;6.798;2023-05-21T06:10:24;100829.63;;;15.41;89.87
2178;BME280;1095;50.992;6.798;2023-05-21T06:12:50;100832.53;;;15.31;89.52
2178;BME280;1095;50.992;6.798;2023-05-21T06:15:17;100820.63;;;15.35;89.05
2178;BME280;1095;50.992;6.798;2023-05-21T06:17:46;100831.81;;;15.37;88.65
2178;BME280;1095;50.992;6.798;2023-05-21T06:20:13;100829.63;;;15.55;88.16
2178;BME280;1095;50.992;6.798;2023-05-21T06:22:39;100832.06;;;15.42;88.36
2178;BME280;1095;50.992;6.798;2023-05-21T06:25:07;100823.09;;;16.02;87.53
2178;BME280;1095;50.992;6.798;2023-05-21T06:27:36;100824.34;;;16.49;85.39
2178;BME280;1095;50.992;6.798;2023-05-21T06:30:03;100811.41;;;16.33;84.60
2178;BME280;1095;50.992;6.798;2023-05-21T06:32:30;100808.88;;;16.24;84.28
2178;BME280;1095;50.992;6.798;2023-05-21T06:34:57;100820.34;;;16.53;84.48
2178;BME280;1095;50.992;6.798;2023-05-21T06:37:23;100817.47;;;17.04;82.77
2178;BME280;1095;50.992;6.798;2023-05-21T06:39:50;100818.63;;;17.22;81.66
2178;BME280;1095;50.992;6.798;2023-05-21T06:42:17;100817.88;;;17.35;80.50
2178;BME280;1095;50.992;6.798;2023-05-21T06:44:45;100803.19;;;17.67;79.00
2178;BME280;1095;50.992;6.798;2023-05-21T06:47:11;100807.19;;;18.24;77.54
2178;BME280;1095;50.992;6.798;2023-05-21T06:49:38;100805.16;;;18.46;76.60
2178;BME280;1095;50.992;6.798;2023-05-21T06:52:05;100799.47;;;18.88;75.51
2178;BME280;1095;50.992;6.798;2023-05-21T06:54:32;100802.28;;;19.13;74.27
2178;BME280;1095;50.992;6.798;2023-05-21T06:56:59;100809.13;;;19.54;73.66
2178;BME280;1095;50.992;6.798;2023-05-21T06:59:25;100807.50;;;19.91;71.86
2178;BME280;1095;50.992;6.798;2023-05-21T07:01:53;100799.47;;;20.04;70.77
2178;BME280;1095;50.992;6.798;2023-05-21T07:04:20;100795.00;;;20.61;69.94
2178;BME280;1095;50.992;6.798;2023-05-21T07:06:46;100804.44;;;21.00;68.78
2178;BME280;1095;50.992;6.798;2023-05-21T07:09:13;100800.47;;;21.28;67.18
2178;BME280;1095;50.992;6.798;2023-05-21T07:11:40;100795.06;;;21.16;67.14
2178;BME280;1095;50.992;6.798;2023-05-21T07:14:07;100793.81;;;21.37;66.52
2178;BME280;1095;50.992;6.798;2023-05-21T07:16:36;100803.63;;;19.87;69.21
2178;BME280;1095;50.992;6.798;2023-05-21T07:19:04;100821.97;;;19.50;70.97
2178;BME280;1095;50.992;6.798;2023-05-21T07:21:31;100813.00;;;19.96;70.78
2178;BME280;1095;50.992;6.798;2023-05-21T07:23:58;100815.94;;;20.19;70.33
2178;BME280;1095;50.992;6.798;2023-05-21T07:26:24;100807.75;;;19.25;71.45
2178;BME280;1095;50.992;6.798;2023-05-21T07:28:53;100821.44;;;19.29;72.27
2178;BME280;1095;50.992;6.798;2023-05-21T07:31:19;100820.63;;;19.15;72.62
2178;BME280;1095;50.992;6.798;2023-05-21T07:33:46;100821.78;;;19.52;72.20
2178;BME280;1095;50.992;6.798;2023-05-21T07:36:14;100831.47;;;19.84;71.47
2178;BME280;1095;50.992;6.798;2023-05-21T07:38:41;100817.94;;;20.24;70.09
2178;BME280;1095;50.992;6.798;2023-05-21T07:41:08;100808.72;;;20.58;69.97
2178;BME280;1095;50.992;6.798;2023-05-21T07:43:35;100812.94;;;20.41;69.36
2178;BME280;1095;50.992;6.798;2023-05-21T07:46:02;100807.53;;;20.79;69.08
2178;BME280;1095;50.992;6.798;2023-05-21T07:48:28;100802.25;;;20.72;69.11
2178;BME280;1095;50.992;6.798;2023-05-21T07:50:56;100802.91;;;20.36;69.79
2178;BME280;1095;50.992;6.798;2023-05-21T07:53:24;100815.59;;;20.41;69.87
2178;BME280;1095;50.992;6.798;2023-05-21T07:55:51;100815.56;;;20.91;69.44
2178;BME280;1095;50.992;6.798;2023-05-21T07:58:17;100812.59;;;20.31;69.32
2178;BME280;1095;50.992;6.798;2023-05-21T08:00:45;100815.63;;;20.03;70.44
2178;BME280;1095;50.992;6.798;2023-05-21T08:03:13;100816.66;;;19.50;71.17
2178;BME280;1095;50.992;6.798;2023-05-21T08:05:41;100803.81;;;20.55;70.32
2178;BME280;1095;50.992;6.798;2023-05-21T08:08:09;100803.25;;;20.96;68.75
2178;BME280;1095;50.992;6.798;2023-05-21T08:10:37;100803.75;;;21.78;67.01
2178;BME280;1095;50.992;6.798;2023-05-21T08:13:04;100803.53;;;22.63;65.83
2178;BME280;1095;50.992;6.798;2023-05-21T08:15:32;100798.22;;;23.49;62.90
2178;BME280;1095;50.992;6.798;2023-05-21T08:17:59;100789.56;;;23.31;62.45
2178;BME280;1095;50.992;6.798;2023-05-21T08:20:25;100804.66;;;22.43;64.32
2178;BME280;1095;50.992;6.798;2023-05-21T08:22:53;100804.53;;;21.48;66.02
2178;BME280;1095;50.992;6.798;2023-05-21T08:25:22;100803.66;;;21.36;66.17
2178;BME280;1095;50.992;6.798;2023-05-21T08:27:50;100805.38;;;20.87;68.38
2178;BME280;1095;50.992;6.798;2023-05-21T08:30:16;100807.34;;;22.02;66.66
2178;BME280;1095;50.992;6.798;2023-05-21T08:32:43;100808.22;;;21.29;67.70
2178;BME280;1095;50.992;6.798;2023-05-21T08:35:10;100804.38;;;21.43;67.07
2178;BME280;1095;50.992;6.798;2023-05-21T08:37:36;100792.69;;;21.93;65.98
2178;BME280;1095;50.992;6.798;2023-05-21T08:40:04;100797.22;;;20.82;67.72
2178;BME280;1095;50.992;6.798;2023-05-21T08:42:38;100795.44;;;21.38;68.05
2178;BME280;1095;50.992;6.798;2023-05-21T08:45:08;100794.13;;;20.85;68.15
2178;BME280;1095;50.992;6.798;2023-05-21T08:47:36;100800.16;;;20.25;69.39
2178;BME280;1095;50.992;6.798;2023-05-21T08:50:08;100794.69;;;21.12;69.16
2178;BME280;1095;50.992;6.798;2023-05-21T08:52:35;100787.69;;;22.14;67.27
2178;BME280;1095;50.992;6.798;2023-05-21T08:55:04;100790.50;;;22.43;65.27
2178;BME280;1095;50.992;6.798;2023-05-21T08:57:31;100783.81;;;22.87;64.83
2178;BME280;1095;50.992;6.798;2023-05-21T08:59:58;100778.13;;;22.95;63.86
2178;BME280;1095;50.992;6.798;2023-05-21T09:02:28;100773.75;;;23.41;62.68
2178;BME280;1095;50.992;6.798;2023-05-21T09:04:58;100770.47;;;23.62;62.87
2178;BME280;1095;50.992;6.798;2023-05-21T09:07:27;100781.78;;;22.24;64.40
2178;BME280;1095;50.992;6.798;2023-05-21T09:09:56;100782.59;;;20.24;68.48
2178;BME280;1095;50.992;6.798;2023-05-21T09:12:24;100784.78;;;21.01;69.14
2178;BME280;1095;50.992;6.798;2023-05-21T09:14:51;100790.16;;;20.95;69.82
2178;BME280;1095;50.992;6.798;2023-05-21T09:17:18;100791.97;;;21.19;69.50
2178;BME280;1095;50.992;6.798;2023-05-21T09:20:06;100793.19;;;21.23;69.19
2178;BME280;1095;50.992;6.798;2023-05-21T09:22:35;100787.75;;;21.48;68.48
2178;BME280;1095;50.992;6.798;2023-05-21T09:25:04;100778.41;;;22.05;67.39
2178;BME280;1095;50.992;6.798;2023-05-21T09:27:32;100777.09;;;22.96;65.76
2178;BME280;1095;50.992;6.798;2023-05-21T09:30:00;100774.34;;;23.71;63.53
2178;BME280;1095;50.992;6.798;2023-05-21T09:32:27;100777.50;;;22.35;64.42
2178;BME280;1095;50.992;6.798;2023-05-21T09:34:54;100783.75;;;22.29;66.01
2178;BME280;1095;50.992;6.798;2023-05-21T09:37:24;100769.91;;;22.85;64.70
2178;BME280;1095;50.992;6.798;2023-05-21T09:39:52;100760.53;;;23.34;64.21
2178;BME280;1095;50.992;6.798;2023-05-21T09:42:32;100756.56;;;22.85;63.62
2178;BME280;1095;50.992;6.798;2023-05-21T09:45:09;100735.47;;;22.83;63.87
2178;BME280;1095;50.992;6.798;2023-05-21T09:47:41;100729.88;;;22.97;64.77
2178;BME280;1095;50.992;6.798;2023-05-21T09:50:23;100758.31;;;21.61;65.76
2178;BME280;1095;50.992;6.798;2023-05-21T09:56:45;100778.66;;;22.27;68.83
2178;BME280;1095;50.992;6.798;2023-05-21T09:59:21;100735.91;;;22.34;67.37
2178;BME280;1095;50.992;6.798;2023-05-21T10:02:22;100734.41;;;22.96;65.15
2178;BME280;1095;50.992;6.798;2023-05-21T10:04:57;100728.94;;;23.03;64.33
2178;BME280;1095;50.992;6.798;2023-05-21T10:07:41;100730.00;;;22.67;64.82
2178;BME280;1095;50.992;6.798;2023-05-21T10:10:23;100735.09;;;23.32;64.32
2178;BME280;1095;50.992;6.798;2023-05-21T10:13:26;100734.06;;;23.33;63.98
2178;BME280;1095;50.992;6.798;2023-05-21T10:16:11;100718.47;;;23.13;64.79
2178;BME280;1095;50.992;6.798;2023-05-21T10:18:43;100718.72;;;22.76;66.06
2178;BME280;1095;50.992;6.798;2023-05-21T10:21:11;100732.13;;;23.16;64.89
2178;BME280;1095;50.992;6.798;2023-05-21T10:23:38;100731.97;;;23.35;64.74
2178;BME280;1095;50.992;6.798;2023-05-21T10:26:09;100731.59;;;23.03;65.74
2178;BME280;1095;50.992;6.798;2023-05-21T10:28:38;100719.91;;;22.80;65.75
2178;BME280;1095;50.992;6.798;2023-05-21T10:31:05;100742.06;;;22.81;66.48
2178;BME280;1095;50.992;6.798;2023-05-21T10:33:34;100723.63;;;22.79;65.90
2178;BME280;1095;50.992;6.798;2023-05-21T10:36:01;100727.91;;;22.92;66.48
2178;BME280;1095;50.992;6.798;2023-05-21T10:38:28;100718.38;;;23.08;66.46
2178;BME280;1095;50.992;6.798;2023-05-21T10:40:56;100712.03;;;22.62;66.00
2178;BME280;1095;50.992;6.798;2023-05-21T10:43:53;100714.66;;;22.74;66.88
2178;BME280;1095;50.992;6.798;2023-05-21T10:49:37;100707.94;;;23.35;64.91
2178;BME280;1095;50.992;6.798;2023-05-21T10:52:21;100702.09;;;23.49;64.49
2178;BME280;1095;50.992;6.798;2023-05-21T10:54:58;100700.22;;;23.78;64.46
2178;BME280;1095;50.992;6.798;2023-05-21T10:57:44;100701.72;;;23.58;64.52
2178;BME280;1095;50.992;6.798;2023-05-21T11:00:17;100704.06;;;23.42;65.17
2178;BME280;1095;50.992;6.798;2023-05-21T11:02:46;100694.53;;;23.75;64.88
2178;BME280;1095;50.992;6.798;2023-05-21T11:05:16;100692.19;;;23.62;64.87
2178;BME280;1095;50.992;6.798;2023-05-21T11:07:52;100684.16;;;24.12;63.88
2178;BME280;1095;50.992;6.798;2023-05-21T11:10:35;100694.41;;;23.98;64.18
2178;BME280;1095;50.992;6.798;2023-05-21T11:13:11;100682.53;;;24.11;63.63
2178;BME280;1095;50.992;6.798;2023-05-21T11:16:08;100683.84;;;23.75;64.55
2178;BME280;1095;50.992;6.798;2023-05-21T11:18:57;100683.03;;;23.58;64.87
2178;BME280;1095;50.992;6.798;2023-05-21T11:21:27;100685.00;;;23.50;65.27
2178;BME280;1095;50.992;6.798;2023-05-21T11:23:58;100671.22;;;23.70;64.34
2178;BME280;1095;50.992;6.798;2023-05-21T11:26:26;100691.28;;;23.73;64.96
2178;BME280;1095;50.992;6.798;2023-05-21T11:29:06;100686.41;;;23.53;65.35
2178;BME280;1095;50.992;6.798;2023-05-21T11:31:34;100690.16;;;23.40;65.38
2178;BME280;1095;50.992;6.798;2023-05-21T11:34:12;100683.84;;;23.58;65.67
2178;BME280;1095;50.992;6.798;2023-05-21T11:36:39;100676.66;;;23.92;64.75
2178;BME280;1095;50.992;6.798;2023-05-21T11:39:10;100671.13;;;23.82;64.85
2178;BME280;1095;50.992;6.798;2023-05-21T11:41:55;100675.25;;;23.16;65.34
2178;BME280;1095;50.992;6.798;2023-05-21T11:44:37;100668.50;;;23.25;65.50
2178;BME280;1095;50.992;6.798;2023-05-21T11:47:06;100661.19;;;23.61;65.04
2178;BME280;1095;50.992;6.798;2023-05-21T11:49:33;100664.91;;;23.76;64.98
2178;BME280;1095;50.992;6.798;2023-05-21T11:52:01;100665.75;;;23.48;65.43
2178;BME280;1095;50.992;6.798;2023-05-21T11:54:29;100665.66;;;23.43;65.70
2178;BME280;1095;50.992;6.798;2023-05-21T11:56:58;100667.06;;;23.34;66.18
2178;BME280;1095;50.992;6.798;2023-05-21T11:59:25;100662.63;;;23.68;65.54
2178;BME280;1095;50.992;6.798;2023-05-21T12:01:52;100657.88;;;23.87;65.30
2178;BME280;1095;50.992;6.798;2023-05-21T12:04:20;100660.78;;;24.02;64.47
2178;BME280;1095;50.992;6.798;2023-05-21T12:06:47;100655.19;;;24.04;64.71
2178;BME280;1095;50.992;6.798;2023-05-21T12:09:15;100656.72;;;24.16;65.40
2178;BME280;1095;50.992;6.798;2023-05-21T12:11:42;100655.16;;;24.21;64.43
2178;BME280;1095;50.992;6.798;2023-05-21T12:14:09;100652.75;;;23.69;65.58
2178;BME280;1095;50.992;6.798;2023-05-21T12:16:36;100653.56;;;23.86;65.63
2178;BME280;1095;50.992;6.798;2023-05-21T12:19:03;100652.84;;;23.74;65.88
2178;BME280;1095;50.992;6.798;2023-05-21T12:21:32;100642.66;;;24.04;65.14
2178;BME280;1095;50.992;6.798;2023-05-21T12:23:58;100639.41;;;24.02;65.04
2178;BME280;1095;50.992;6.798;2023-05-21T12:26:25;100634.75;;;24.31;64.80
2178;BME280;1095;50.992;6.798;2023-05-21T12:28:53;100654.88;;;24.00;65.50
2178;BME280;1095;50.992;6.798;2023-05-21T12:31:20;100644.72;;;24.19;65.05
2178;BME280;1095;50.992;6.798;2023-05-21T12:33:48;100634.13;;;24.07;64.54
2178;BME280;1095;50.992;6.798;2023-05-21T12:36:25;100651.28;;;24.28;64.73
2178;BME280;1095;50.992;6.798;2023-05-21T12:38:54;100641.09;;;24.08;64.51
2178;BME280;1095;50.992;6.798;2023-05-21T12:41:21;100649.53;;;24.00;65.34
2178;BME280;1095;50.992;6.798;2023-05-21T12:43:51;100660.34;;;24.10;65.55
2178;BME280;1095;50.992;6.798;2023-05-21T12:46:18;100648.78;;;23.88;65.79
2178;BME280;1095;50.992;6.798;2023-05-21T12:48:48;100645.97;;;23.61;66.06
2178;BME280;1095;50.992;6.798;2023-05-21T12:51:15;100645.63;;;23.58;65.98
2178;BME280;1095;50.992;6.798;2023-05-21T12:53:42;100630.59;;;24.24;65.19
2178;BME280;1095;50.992;6.798;2023-05-21T12:56:14;100616.78;;;24.27;64.52
2178;BME280;1095;50.992;6.798;2023-05-21T12:58:48;100633.16;;;23.97;64.83
2178;BME280;1095;50.992;6.798;2023-05-21T13:01:15;100630.34;;;23.87;65.07
2178;BME280;1095;50.992;6.798;2023-05-21T13:03:42;100623.25;;;24.31;64.57
2178;BME280;1095;50.992;6.798;2023-05-21T13:06:09;100614.31;;;24.42;63.56
2178;BME280;1095;50.992;6.798;2023-05-21T13:13:40;100614.19;;;24.75;62.87
2178;BME280;1095;50.992;6.798;2023-05-21T13:16:07;100627.13;;;24.84;63.47
2178;BME280;1095;50.992;6.798;2023-05-21T13:18:34;100610.53;;;24.38;63.08
2178;BME280;1095;50.992;6.798;2023-05-21T13:21:03;100616.44;;;24.40;62.85
2178;BME280;1095;50.992;6.798;2023-05-21T13:23:30;100615.03;;;24.54;63.14
2178;BME280;1095;50.992;6.798;2023-05-21T13:25:57;100617.31;;;24.45;62.66
2178;BME280;1095;50.992;6.798;2023-05-21T13:28:23;100612.81;;;24.29;62.53
2178;BME280;1095;50.992;6.798;2023-05-21T13:30:51;100627.53;;;24.15;63.18